sensor_id;sensor_type;location;lat;lon;timestamp;P1;durP1;ratioP1;P2;durP2;ratioP2
69057;SDS011;56128;37.534;-122.308;2024-03-22T00:02:07;1.45;;;0.68;;
69057;SDS011;56128;37.534;-122.308;2024-03-22T00:04:37;2.90;;;0.90;;
69057;SDS011;56128;37.534;-122.308;2024-03-22T00:07:05;2.60;;;0.93;;
69057;SDS011;56128;37.534;-122.308;2024-03-22T00:09:32;3.10;;;0.77;;
69057;SDS011;56128;37.534;-122.308;2024-03-22T00:11:59;3.00;;;0.90;;
69057;SDS011;56128;37.534;-122.308;2024-03-22T00:14:29;2.72;;;0.90;;
69057;SDS011;56128;37.534;-122.308;2024-03-22T00:17:03;3.17;;;0.75;;
69057;SDS011;56128;37.534;-122.308;2024-03-22T00:19:30;2.85;;;1.10;;
69057;SDS011;56128;37.534;-122.308;2024-03-22T00:21:57;3.08;;;0.77;;
69057;SDS011;56128;37.534;-122.308;2024-03-22T00:24:24;2.50;;;0.77;;
69057;SDS011;56128;37.534;-122.308;2024-03-22T00:26:55;1.08;;;0.70;;
69057;SDS011;56128;37.534;-122.308;2024-03-22T00:29:43;2.70;;;0.73;;
69057;SDS011;56128;37.534;-122.308;2024-03-22T00:32:09;3.40;;;0.80;;
69057;SDS011;56128;37.534;-122.308;2024-03-22T00:34:36;2.95;;;0.82;;
69057;SDS011;56128;37.534;-122.308;2024-03-22T00:37:02;2.53;;;0.85;;
69057;SDS011;56128;37.534;-122.308;2024-03-22T00:39:28;1.58;;;0.60;;
69057;SDS011;56128;37.534;-122.308;2024-03-22T00:41:54;3.13;;;0.88;;
69057;SDS011;56128;37.534;-122.308;2024-03-22T00:44:20;1.40;;;0.70;;
69057;SDS011;56128;37.534;-122.308;2024-03-22T00:46:47;3.55;;;1.10;;
69057;SDS011;56128;37.534;-122.308;2024-03-22T00:49:13;2.33;;;0.60;;
69057;SDS011;56128;37.534;-122.308;2024-03-22T00:51:39;3.00;;;0.77;;
69057;SDS011;56128;37.534;-122.308;2024-03-22T00:54:08;1.63;;;0.63;;
69057;SDS011;56128;37.534;-122.308;2024-03-22T00:56:38;1.58;;;0.70;;
69057;SDS011;56128;37.534;-122.308;2024-03-22T00:59:04;2.28;;;0.70;;
69057;SDS011;56128;37.534;-122.308;2024-03-22T01:01:32;1.33;;;0.75;;
69057;SDS011;56128;37.534;-122.308;2024-03-22T01:03:58;1.88;;;0.90;;
69057;SDS011;56128;37.534;-122.308;2024-03-22T01:08:57;2.13;;;0.80;;
69057;SDS011;56128;37.534;-122.308;2024-03-22T01:11:24;4.15;;;0.70;;
69057;SDS011;56128;37.534;-122.308;2024-03-22T01:13:52;1.98;;;0.60;;
69057;SDS011;56128;37.534;-122.308;2024-03-22T01:16:19;3.25;;;1.10;;
69057;SDS011;56128;37.534;-122.308;2024-03-22T01:18:46;2.20;;;0.90;;
69057;SDS011;56128;37.534;-122.308;2024-03-22T01:21:13;3.78;;;0.90;;
69057;SDS011;56128;37.534;-122.308;2024-03-22T01:23:42;1.92;;;0.80;;
69057;SDS011;56128;37.534;-122.308;2024-03-22T01:26:09;1.80;;;0.80;;
69057;SDS011;56128;37.534;-122.308;2024-03-22T01:28:35;3.35;;;1.00;;
69057;SDS011;56128;37.534;-122.308;2024-03-22T01:31:02;1.75;;;0.70;;
69057;SDS011;56128;37.534;-122.308;2024-03-22T01:33:30;3.00;;;0.98;;
69057;SDS011;56128;37.534;-122.308;2024-03-22T01:35:58;2.08;;;1.08;;
69057;SDS011;56128;37.534;-122.308;2024-03-22T01:38:24;1.95;;;0.60;;
69057;SDS011;56128;37.534;-122.308;2024-03-22T01:40:51;1.77;;;0.77;;
69057;SDS011;56128;37.534;-122.308;2024-03-22T01:43:21;2.15;;;0.80;;
69057;SDS011;56128;37.534;-122.308;2024-03-22T01:45:50;2.20;;;0.70;;
69057;SDS011;56128;37.534;-122.308;2024-03-22T01:48:17;2.67;;;0.80;;
69057;SDS011;56128;37.534;-122.308;2024-03-22T01:50:47;4.53;;;1.05;;
69057;SDS011;56128;37.534;-122.308;2024-03-22T01:53:14;2.75;;;0.93;;
69057;SDS011;56128;37.534;-122.308;2024-03-22T01:55:41;2.67;;;0.80;;
69057;SDS011;56128;37.534;-122.308;2024-03-22T01:58:09;3.22;;;1.00;;
69057;SDS011;56128;37.534;-122.308;2024-03-22T02:00:40;2.33;;;0.90;;
69057;SDS011;56128;37.534;-122.308;2024-03-22T02:03:08;2.72;;;0.88;;
69057;SDS011;56128;37.534;-122.308;2024-03-22T02:05:35;2.47;;;0.80;;
69057;SDS011;56128;37.534;-122.308;2024-03-22T02:08:02;2.17;;;1.00;;
69057;SDS011;56128;37.534;-122.308;2024-03-22T02:10:29;2.85;;;1.00;;
69057;SDS011;56128;37.534;-122.308;2024-03-22T02:12:56;4.32;;;1.02;;
69057;SDS011;56128;37.534;-122.308;2024-03-22T02:15:23;3.92;;;1.00;;
69057;SDS011;56128;37.534;-122.308;2024-03-22T02:17:50;3.05;;;1.10;;
69057;SDS011;56128;37.534;-122.308;2024-03-22T02:20:17;3.47;;;0.90;;
69057;SDS011;56128;37.534;-122.308;2024-03-22T02:22:44;2.95;;;1.02;;
69057;SDS011;56128;37.534;-122.308;2024-03-22T02:25:12;3.00;;;0.93;;
69057;SDS011;56128;37.534;-122.308;2024-03-22T02:27:40;3.15;;;1.20;;
69057;SDS011;56128;37.534;-122.308;2024-03-22T02:30:08;2.53;;;1.00;;
69057;SDS011;56128;37.534;-122.308;2024-03-22T02:32:37;3.30;;;1.08;;
69057;SDS011;56128;37.534;-122.308;2024-03-22T02:35:06;2.55;;;1.13;;
69057;SDS011;56128;37.534;-122.308;2024-03-22T02:37:35;2.67;;;0.98;;
69057;SDS011;56128;37.534;-122.308;2024-03-22T02:40:02;3.60;;;1.35;;
69057;SDS011;56128;37.534;-122.308;2024-03-22T02:42:30;3.95;;;1.02;;
69057;SDS011;56128;37.534;-122.308;2024-03-22T02:44:56;2.08;;;0.82;;
69057;SDS011;56128;37.534;-122.308;2024-03-22T02:47:23;2.85;;;1.10;;
69057;SDS011;56128;37.534;-122.308;2024-03-22T02:49:50;3.15;;;1.20;;
69057;SDS011;56128;37.534;-122.308;2024-03-22T02:52:17;3.80;;;1.05;;
69057;SDS011;56128;37.534;-122.308;2024-03-22T02:54:44;4.13;;;1.30;;
69057;SDS011;56128;37.534;-122.308;2024-03-22T02:57:14;3.92;;;1.35;;
69057;SDS011;56128;37.534;-122.308;2024-03-22T02:59:41;5.15;;;1.30;;
69057;SDS011;56128;37.534;-122.308;2024-03-22T03:02:08;3.78;;;1.58;;
69057;SDS011;56128;37.534;-122.308;2024-03-22T03:04:36;4.28;;;1.27;;
69057;SDS011;56128;37.534;-122.308;2024-03-22T03:07:03;5.22;;;1.42;;
69057;SDS011;56128;37.534;-122.308;2024-03-22T03:09:30;5.05;;;1.38;;
69057;SDS011;56128;37.534;-122.308;2024-03-22T03:11:56;5.97;;;1.35;;
69057;SDS011;56128;37.534;-122.308;2024-03-22T03:14:23;4.00;;;1.15;;
69057;SDS011;56128;37.534;-122.308;2024-03-22T03:16:50;5.45;;;1.27;;
69057;SDS011;56128;37.534;-122.308;2024-03-22T03:19:17;5.90;;;1.85;;
69057;SDS011;56128;37.534;-122.308;2024-03-22T03:21:44;2.38;;;1.23;;
69057;SDS011;56128;37.534;-122.308;2024-03-22T03:24:10;3.88;;;1.20;;
69057;SDS011;56128;37.534;-122.308;2024-03-22T03:26:37;3.95;;;1.20;;
69057;SDS011;56128;37.534;-122.308;2024-03-22T03:29:03;5.60;;;1.10;;
69057;SDS011;56128;37.534;-122.308;2024-03-22T03:31:30;4.50;;;1.00;;
69057;SDS011;56128;37.534;-122.308;2024-03-22T03:33:56;2.67;;;1.08;;
69057;SDS011;56128;37.534;-122.308;2024-03-22T03:36:24;5.38;;;1.17;;
69057;SDS011;56128;37.534;-122.308;2024-03-22T03:38:51;4.03;;;1.15;;
69057;SDS011;56128;37.534;-122.308;2024-03-22T03:41:17;3.15;;;0.90;;
69057;SDS011;56128;37.534;-122.308;2024-03-22T03:43:45;3.03;;;1.00;;
69057;SDS011;56128;37.534;-122.308;2024-03-22T03:46:11;3.05;;;1.05;;
69057;SDS011;56128;37.534;-122.308;2024-03-22T03:48:38;4.63;;;1.13;;
69057;SDS011;56128;37.534;-122.308;2024-03-22T03:51:05;3.60;;;1.27;;
69057;SDS011;56128;37.534;-122.308;2024-03-22T03:53:32;3.42;;;1.10;;
69057;SDS011;56128;37.534;-122.308;2024-03-22T03:55:58;3.72;;;1.08;;
69057;SDS011;56128;37.534;-122.308;2024-03-22T03:58:25;3.30;;;1.00;;
69057;SDS011;56128;37.534;-122.308;2024-03-22T04:00:52;5.88;;;1.30;;
69057;SDS011;56128;37.534;-122.308;2024-03-22T04:03:18;3.85;;;1.15;;
69057;SDS011;56128;37.534;-122.308;2024-03-22T04:05:44;3.03;;;1.10;;
69057;SDS011;56128;37.534;-122.308;2024-03-22T04:08:11;6.30;;;1.13;;
69057;SDS011;56128;37.534;-122.308;2024-03-22T04:10:38;6.10;;;1.20;;
69057;SDS011;56128;37.534;-122.308;2024-03-22T04:13:04;6.88;;;1.40;;
69057;SDS011;56128;37.534;-122.308;2024-03-22T04:15:33;4.55;;;1.30;;
69057;SDS011;56128;37.534;-122.308;2024-03-22T04:18:00;4.55;;;1.02;;
69057;SDS011;56128;37.534;-122.308;2024-03-22T04:20:26;3.15;;;1.40;;
69057;SDS011;56128;37.534;-122.308;2024-03-22T04:22:52;4.32;;;1.00;;
69057;SDS011;56128;37.534;-122.308;2024-03-22T04:25:19;3.60;;;1.27;;
69057;SDS011;56128;37.534;-122.308;2024-03-22T04:27:45;8.52;;;1.40;;
69057;SDS011;56128;37.534;-122.308;2024-03-22T04:30:11;3.70;;;1.00;;
69057;SDS011;56128;37.534;-122.308;2024-03-22T04:32:37;3.25;;;1.27;;
69057;SDS011;56128;37.534;-122.308;2024-03-22T04:35:03;3.90;;;1.25;;
69057;SDS011;56128;37.534;-122.308;2024-03-22T04:37:30;3.08;;;1.20;;
69057;SDS011;56128;37.534;-122.308;2024-03-22T04:39:56;3.08;;;1.13;;
69057;SDS011;56128;37.534;-122.308;2024-03-22T04:42:22;5.45;;;1.30;;
69057;SDS011;56128;37.534;-122.308;2024-03-22T04:44:48;4.50;;;1.27;;
69057;SDS011;56128;37.534;-122.308;2024-03-22T04:47:14;4.38;;;1.20;;
69057;SDS011;56128;37.534;-122.308;2024-03-22T04:49:41;3.58;;;1.20;;
69057;SDS011;56128;37.534;-122.308;2024-03-22T04:52:07;3.72;;;1.10;;
69057;SDS011;56128;37.534;-122.308;2024-03-22T04:54:33;2.55;;;1.10;;
69057;SDS011;56128;37.534;-122.308;2024-03-22T04:56:59;2.70;;;1.20;;
69057;SDS011;56128;37.534;-122.308;2024-03-22T04:59:25;4.40;;;1.10;;
69057;SDS011;56128;37.534;-122.308;2024-03-22T05:01:51;3.75;;;1.10;;
69057;SDS011;56128;37.534;-122.308;2024-03-22T05:04:18;3.72;;;1.27;;
69057;SDS011;56128;37.534;-122.308;2024-03-22T05:06:44;2.55;;;1.10;;
69057;SDS011;56128;37.534;-122.308;2024-03-22T05:09:11;4.45;;;1.15;;
69057;SDS011;56128;37.534;-122.308;2024-03-22T05:11:37;4.50;;;1.20;;
69057;SDS011;56128;37.534;-122.308;2024-03-22T05:14:03;3.85;;;1.13;;
69057;SDS011;56128;37.534;-122.308;2024-03-22T05:16:29;4.68;;;1.30;;
69057;SDS011;56128;37.534;-122.308;2024-03-22T05:18:55;5.20;;;1.40;;
69057;SDS011;56128;37.534;-122.308;2024-03-22T05:21:21;4.03;;;1.40;;
69057;SDS011;56128;37.534;-122.308;2024-03-22T05:23:47;3.28;;;1.25;;
69057;SDS011;56128;37.534;-122.308;2024-03-22T05:26:14;2.80;;;1.27;;
69057;SDS011;56128;37.534;-122.308;2024-03-22T05:28:40;2.50;;;1.25;;
69057;SDS011;56128;37.534;-122.308;2024-03-22T05:31:06;3.30;;;1.38;;
69057;SDS011;56128;37.534;-122.308;2024-03-22T05:33:32;3.63;;;1.23;;
69057;SDS011;56128;37.534;-122.308;2024-03-22T05:35:58;4.45;;;1.40;;
69057;SDS011;56128;37.534;-122.308;2024-03-22T05:38:24;3.90;;;1.35;;
69057;SDS011;56128;37.534;-122.308;2024-03-22T05:40:50;2.85;;;1.23;;
69057;SDS011;56128;37.534;-122.308;2024-03-22T05:43:17;5.43;;;1.70;;
69057;SDS011;56128;37.534;-122.308;2024-03-22T05:45:43;3.20;;;1.25;;
69057;SDS011;56128;37.534;-122.308;2024-03-22T05:48:09;2.90;;;1.23;;
69057;SDS011;56128;37.534;-122.308;2024-03-22T05:50:35;3.03;;;1.20;;
69057;SDS011;56128;37.534;-122.308;2024-03-22T05:53:01;3.03;;;1.13;;
69057;SDS011;56128;37.534;-122.308;2024-03-22T05:55:27;3.63;;;1.35;;
69057;SDS011;56128;37.534;-122.308;2024-03-22T05:57:56;3.95;;;1.40;;
69057;SDS011;56128;37.534;-122.308;2024-03-22T06:00:22;3.40;;;1.23;;
69057;SDS011;56128;37.534;-122.308;2024-03-22T06:02:48;3.50;;;1.50;;
69057;SDS011;56128;37.534;-122.308;2024-03-22T06:05:14;4.07;;;1.38;;
69057;SDS011;56128;37.534;-122.308;2024-03-22T06:07:42;2.58;;;1.23;;
69057;SDS011;56128;37.534;-122.308;2024-03-22T06:10:11;3.00;;;1.45;;
69057;SDS011;56128;37.534;-122.308;2024-03-22T06:12:37;5.13;;;1.63;;
69057;SDS011;56128;37.534;-122.308;2024-03-22T06:15:03;5.80;;;1.48;;
69057;SDS011;56128;37.534;-122.308;2024-03-22T06:17:32;3.75;;;1.27;;
69057;SDS011;56128;37.534;-122.308;2024-03-22T06:19:59;4.43;;;1.52;;
69057;SDS011;56128;37.534;-122.308;2024-03-22T06:22:26;3.15;;;1.40;;
69057;SDS011;56128;37.534;-122.308;2024-03-22T06:24:52;5.32;;;1.58;;
69057;SDS011;56128;37.534;-122.308;2024-03-22T06:27:19;4.53;;;1.40;;
69057;SDS011;56128;37.534;-122.308;2024-03-22T06:29:45;5.55;;;1.58;;
69057;SDS011;56128;37.534;-122.308;2024-03-22T06:32:11;4.70;;;1.55;;
69057;SDS011;56128;37.534;-122.308;2024-03-22T06:34:38;6.85;;;1.67;;
69057;SDS011;56128;37.534;-122.308;2024-03-22T06:37:04;2.90;;;1.55;;
69057;SDS011;56128;37.534;-122.308;2024-03-22T06:39:30;4.28;;;1.70;;
69057;SDS011;56128;37.534;-122.308;2024-03-22T06:41:56;3.88;;;1.40;;
69057;SDS011;56128;37.534;-122.308;2024-03-22T06:44:22;3.58;;;1.65;;
69057;SDS011;56128;37.534;-122.308;2024-03-22T06:46:48;4.10;;;1.80;;
69057;SDS011;56128;37.534;-122.308;2024-03-22T06:49:15;4.28;;;1.50;;
69057;SDS011;56128;37.534;-122.308;2024-03-22T06:51:42;5.07;;;1.52;;
69057;SDS011;56128;37.534;-122.308;2024-03-22T06:54:08;5.10;;;1.75;;
69057;SDS011;56128;37.534;-122.308;2024-03-22T06:56:35;5.55;;;2.25;;
69057;SDS011;56128;37.534;-122.308;2024-03-22T06:59:01;4.47;;;1.65;;
69057;SDS011;56128;37.534;-122.308;2024-03-22T07:01:27;6.18;;;2.20;;
69057;SDS011;56128;37.534;-122.308;2024-03-22T07:03:53;5.32;;;1.80;;
69057;SDS011;56128;37.534;-122.308;2024-03-22T07:06:19;4.90;;;1.80;;
69057;SDS011;56128;37.534;-122.308;2024-03-22T07:08:45;4.05;;;1.67;;
69057;SDS011;56128;37.534;-122.308;2024-03-22T07:11:12;3.40;;;1.70;;
69057;SDS011;56128;37.534;-122.308;2024-03-22T07:13:38;5.25;;;1.65;;
69057;SDS011;56128;37.534;-122.308;2024-03-22T07:16:04;3.67;;;1.30;;
69057;SDS011;56128;37.534;-122.308;2024-03-22T07:18:30;4.65;;;1.38;;
69057;SDS011;56128;37.534;-122.308;2024-03-22T07:20:56;8.15;;;2.70;;
69057;SDS011;56128;37.534;-122.308;2024-03-22T07:23:27;4.72;;;1.48;;
69057;SDS011;56128;37.534;-122.308;2024-03-22T07:25:53;3.67;;;1.70;;
69057;SDS011;56128;37.534;-122.308;2024-03-22T07:28:19;4.15;;;1.38;;
69057;SDS011;56128;37.534;-122.308;2024-03-22T07:30:46;7.22;;;1.70;;
69057;SDS011;56128;37.534;-122.308;2024-03-22T07:33:13;4.82;;;1.40;;
69057;SDS011;56128;37.534;-122.308;2024-03-22T07:35:41;2.60;;;1.40;;
69057;SDS011;56128;37.534;-122.308;2024-03-22T07:38:07;4.28;;;1.60;;
69057;SDS011;56128;37.534;-122.308;2024-03-22T07:40:34;4.03;;;1.40;;
69057;SDS011;56128;37.534;-122.308;2024-03-22T07:43:00;5.13;;;1.38;;
69057;SDS011;56128;37.534;-122.308;2024-03-22T07:45:31;5.57;;;1.35;;
69057;SDS011;56128;37.534;-122.308;2024-03-22T07:48:00;2.78;;;1.33;;
69057;SDS011;56128;37.534;-122.308;2024-03-22T07:50:26;2.90;;;1.40;;
69057;SDS011;56128;37.534;-122.308;2024-03-22T07:52:53;4.30;;;1.40;;
69057;SDS011;56128;37.534;-122.308;2024-03-22T07:55:19;4.70;;;1.50;;
69057;SDS011;56128;37.534;-122.308;2024-03-22T07:57:45;7.07;;;1.50;;
69057;SDS011;56128;37.534;-122.308;2024-03-22T08:00:12;3.47;;;1.50;;
69057;SDS011;56128;37.534;-122.308;2024-03-22T08:02:38;3.78;;;1.50;;
69057;SDS011;56128;37.534;-122.308;2024-03-22T08:05:04;4.10;;;1.60;;
69057;SDS011;56128;37.534;-122.308;2024-03-22T08:07:32;3.70;;;1.48;;
69057;SDS011;56128;37.534;-122.308;2024-03-22T08:09:58;3.70;;;1.35;;
69057;SDS011;56128;37.534;-122.308;2024-03-22T08:12:25;2.85;;;1.30;;
69057;SDS011;56128;37.534;-122.308;2024-03-22T08:14:51;3.45;;;1.50;;
69057;SDS011;56128;37.534;-122.308;2024-03-22T08:17:17;3.35;;;1.50;;
69057;SDS011;56128;37.534;-122.308;2024-03-22T08:19:43;3.92;;;1.60;;
69057;SDS011;56128;37.534;-122.308;2024-03-22T08:22:10;4.72;;;1.83;;
69057;SDS011;56128;37.534;-122.308;2024-03-22T08:24:36;4.03;;;1.95;;
69057;SDS011;56128;37.534;-122.308;2024-03-22T08:27:03;3.03;;;1.67;;
69057;SDS011;56128;37.534;-122.308;2024-03-22T08:29:29;3.97;;;1.80;;
69057;SDS011;56128;37.534;-122.308;2024-03-22T08:31:55;4.20;;;1.77;;
69057;SDS011;56128;37.534;-122.308;2024-03-22T08:34:21;4.35;;;1.83;;
69057;SDS011;56128;37.534;-122.308;2024-03-22T08:36:48;4.30;;;1.95;;
69057;SDS011;56128;37.534;-122.308;2024-03-22T08:39:14;5.13;;;2.00;;
69057;SDS011;56128;37.534;-122.308;2024-03-22T08:41:41;4.95;;;2.00;;
69057;SDS011;56128;37.534;-122.308;2024-03-22T08:44:07;4.55;;;1.85;;
69057;SDS011;56128;37.534;-122.308;2024-03-22T08:46:33;4.53;;;1.98;;
69057;SDS011;56128;37.534;-122.308;2024-03-22T08:48:59;4.65;;;2.05;;
69057;SDS011;56128;37.534;-122.308;2024-03-22T08:51:25;7.45;;;2.20;;
69057;SDS011;56128;37.534;-122.308;2024-03-22T08:53:52;5.78;;;2.08;;
69057;SDS011;56128;37.534;-122.308;2024-03-22T08:56:18;5.05;;;2.00;;
69057;SDS011;56128;37.534;-122.308;2024-03-22T08:58:44;5.80;;;2.10;;
69057;SDS011;56128;37.534;-122.308;2024-03-22T09:01:10;7.25;;;2.00;;
69057;SDS011;56128;37.534;-122.308;2024-03-22T09:03:36;4.30;;;1.75;;
69057;SDS011;56128;37.534;-122.308;2024-03-22T09:06:03;4.43;;;1.80;;
69057;SDS011;56128;37.534;-122.308;2024-03-22T09:08:29;3.22;;;1.60;;
69057;SDS011;56128;37.534;-122.308;2024-03-22T09:10:56;4.28;;;1.50;;
69057;SDS011;56128;37.534;-122.308;2024-03-22T09:13:22;4.57;;;1.80;;
69057;SDS011;56128;37.534;-122.308;2024-03-22T09:15:55;3.97;;;1.50;;
69057;SDS011;56128;37.534;-122.308;2024-03-22T09:18:25;3.38;;;1.52;;
69057;SDS011;56128;37.534;-122.308;2024-03-22T09:20:52;3.75;;;1.60;;
69057;SDS011;56128;37.534;-122.308;2024-03-22T09:23:18;3.72;;;1.52;;
69057;SDS011;56128;37.534;-122.308;2024-03-22T09:25:45;4.57;;;1.67;;
69057;SDS011;56128;37.534;-122.308;2024-03-22T09:28:12;3.47;;;1.42;;
69057;SDS011;56128;37.534;-122.308;2024-03-22T09:30:42;5.35;;;1.60;;
69057;SDS011;56128;37.534;-122.308;2024-03-22T09:35:38;2.85;;;1.35;;
69057;SDS011;56128;37.534;-122.308;2024-03-22T09:38:04;4.55;;;1.65;;
69057;SDS011;56128;37.534;-122.308;2024-03-22T09:40:30;4.15;;;1.30;;
69057;SDS011;56128;37.534;-122.308;2024-03-22T09:43:01;5.82;;;1.77;;
69057;SDS011;56128;37.534;-122.308;2024-03-22T09:45:29;4.22;;;1.75;;
69057;SDS011;56128;37.534;-122.308;2024-03-22T09:47:57;4.03;;;1.83;;
69057;SDS011;56128;37.534;-122.308;2024-03-22T09:50:24;4.55;;;2.22;;
69057;SDS011;56128;37.534;-122.308;2024-03-22T09:52:54;9.23;;;2.50;;
69057;SDS011;56128;37.534;-122.308;2024-03-22T09:55:24;4.68;;;1.65;;
69057;SDS011;56128;37.534;-122.308;2024-03-22T09:57:50;4.63;;;1.60;;
69057;SDS011;56128;37.534;-122.308;2024-03-22T10:00:19;5.85;;;1.70;;
69057;SDS011;56128;37.534;-122.308;2024-03-22T10:02:48;5.68;;;2.03;;
69057;SDS011;56128;37.534;-122.308;2024-03-22T10:05:15;8.00;;;2.33;;
69057;SDS011;56128;37.534;-122.308;2024-03-22T10:07:43;7.72;;;2.47;;
69057;SDS011;56128;37.534;-122.308;2024-03-22T10:10:09;6.25;;;2.20;;
69057;SDS011;56128;37.534;-122.308;2024-03-22T10:12:37;10.95;;;2.30;;
69057;SDS011;56128;37.534;-122.308;2024-03-22T10:15:04;11.63;;;2.80;;
69057;SDS011;56128;37.534;-122.308;2024-03-22T10:17:34;9.35;;;2.28;;
69057;SDS011;56128;37.534;-122.308;2024-03-22T10:20:01;6.18;;;2.42;;
69057;SDS011;56128;37.534;-122.308;2024-03-22T10:22:28;6.60;;;1.90;;
69057;SDS011;56128;37.534;-122.308;2024-03-22T10:24:54;6.25;;;2.00;;
69057;SDS011;56128;37.534;-122.308;2024-03-22T10:27:26;6.07;;;2.20;;
69057;SDS011;56128;37.534;-122.308;2024-03-22T10:29:54;7.82;;;2.15;;
69057;SDS011;56128;37.534;-122.308;2024-03-22T10:32:20;5.80;;;1.88;;
69057;SDS011;56128;37.534;-122.308;2024-03-22T10:34:49;9.00;;;2.20;;
69057;SDS011;56128;37.534;-122.308;2024-03-22T10:37:16;7.55;;;2.10;;
69057;SDS011;56128;37.534;-122.308;2024-03-22T10:39:42;6.35;;;2.25;;
69057;SDS011;56128;37.534;-122.308;2024-03-22T10:42:10;11.10;;;2.58;;
69057;SDS011;56128;37.534;-122.308;2024-03-22T10:44:38;6.70;;;1.90;;
69057;SDS011;56128;37.534;-122.308;2024-03-22T10:47:05;7.55;;;2.20;;
69057;SDS011;56128;37.534;-122.308;2024-03-22T10:49:36;14.25;;;2.80;;
69057;SDS011;56128;37.534;-122.308;2024-03-22T10:52:03;5.53;;;2.13;;
69057;SDS011;56128;37.534;-122.308;2024-03-22T10:54:36;9.30;;;2.08;;
69057;SDS011;56128;37.534;-122.308;2024-03-22T10:57:05;7.55;;;1.92;;
69057;SDS011;56128;37.534;-122.308;2024-03-22T10:59:37;4.90;;;1.77;;
69057;SDS011;56128;37.534;-122.308;2024-03-22T11:02:03;7.43;;;1.85;;
69057;SDS011;56128;37.534;-122.308;2024-03-22T11:04:32;4.20;;;2.03;;
69057;SDS011;56128;37.534;-122.308;2024-03-22T11:06:59;7.38;;;2.08;;
69057;SDS011;56128;37.534;-122.308;2024-03-22T11:09:26;4.60;;;1.85;;
69057;SDS011;56128;37.534;-122.308;2024-03-22T11:11:52;4.95;;;1.60;;
69057;SDS011;56128;37.534;-122.308;2024-03-22T11:14:19;6.10;;;2.08;;
69057;SDS011;56128;37.534;-122.308;2024-03-22T11:16:47;7.50;;;2.00;;
69057;SDS011;56128;37.534;-122.308;2024-03-22T11:19:13;5.32;;;2.00;;
69057;SDS011;56128;37.534;-122.308;2024-03-22T11:21:39;7.22;;;1.83;;
69057;SDS011;56128;37.534;-122.308;2024-03-22T11:24:05;6.25;;;2.00;;
69057;SDS011;56128;37.534;-122.308;2024-03-22T11:26:32;6.00;;;1.73;;
69057;SDS011;56128;37.534;-122.308;2024-03-22T11:28:59;6.72;;;1.63;;
69057;SDS011;56128;37.534;-122.308;2024-03-22T11:31:25;4.10;;;1.40;;
69057;SDS011;56128;37.534;-122.308;2024-03-22T11:33:55;3.83;;;1.77;;
69057;SDS011;56128;37.534;-122.308;2024-03-22T11:36:23;6.32;;;1.88;;
69057;SDS011;56128;37.534;-122.308;2024-03-22T11:38:49;5.38;;;1.98;;
69057;SDS011;56128;37.534;-122.308;2024-03-22T11:41:18;7.60;;;1.60;;
69057;SDS011;56128;37.534;-122.308;2024-03-22T11:43:48;6.63;;;2.00;;
69057;SDS011;56128;37.534;-122.308;2024-03-22T11:46:16;5.88;;;1.70;;
69057;SDS011;56128;37.534;-122.308;2024-03-22T11:48:43;4.00;;;1.60;;
69057;SDS011;56128;37.534;-122.308;2024-03-22T11:51:09;5.60;;;1.60;;
69057;SDS011;56128;37.534;-122.308;2024-03-22T11:53:35;4.07;;;1.60;;
69057;SDS011;56128;37.534;-122.308;2024-03-22T11:56:05;5.10;;;1.73;;
69057;SDS011;56128;37.534;-122.308;2024-03-22T11:58:33;4.35;;;1.50;;
69057;SDS011;56128;37.534;-122.308;2024-03-22T12:00:59;6.25;;;1.65;;
69057;SDS011;56128;37.534;-122.308;2024-03-22T12:03:26;4.75;;;1.67;;
69057;SDS011;56128;37.534;-122.308;2024-03-22T12:05:54;8.20;;;1.67;;
69057;SDS011;56128;37.534;-122.308;2024-03-22T12:08:20;5.25;;;1.92;;
69057;SDS011;56128;37.534;-122.308;2024-03-22T12:10:46;8.55;;;1.70;;
69057;SDS011;56128;37.534;-122.308;2024-03-22T12:13:12;8.82;;;2.13;;
69057;SDS011;56128;37.534;-122.308;2024-03-22T12:15:38;4.88;;;1.60;;
69057;SDS011;56128;37.534;-122.308;2024-03-22T12:18:04;4.18;;;1.60;;
69057;SDS011;56128;37.534;-122.308;2024-03-22T12:20:31;5.63;;;1.55;;
69057;SDS011;56128;37.534;-122.308;2024-03-22T12:22:57;5.70;;;1.80;;
69057;SDS011;56128;37.534;-122.308;2024-03-22T12:25:23;5.53;;;1.40;;
69057;SDS011;56128;37.534;-122.308;2024-03-22T12:27:49;5.40;;;1.15;;
69057;SDS011;56128;37.534;-122.308;2024-03-22T12:30:16;4.50;;;1.40;;
69057;SDS011;56128;37.534;-122.308;2024-03-22T12:32:42;5.03;;;1.27;;
69057;SDS011;56128;37.534;-122.308;2024-03-22T12:35:08;3.47;;;1.20;;
69057;SDS011;56128;37.534;-122.308;2024-03-22T12:37:34;3.92;;;1.50;;
69057;SDS011;56128;37.534;-122.308;2024-03-22T12:40:01;4.75;;;1.40;;
69057;SDS011;56128;37.534;-122.308;2024-03-22T12:42:27;2.95;;;1.30;;
69057;SDS011;56128;37.534;-122.308;2024-03-22T12:44:54;4.97;;;1.30;;
69057;SDS011;56128;37.534;-122.308;2024-03-22T12:47:20;3.90;;;1.42;;
69057;SDS011;56128;37.534;-122.308;2024-03-22T12:49:46;4.63;;;1.73;;
69057;SDS011;56128;37.534;-122.308;2024-03-22T12:52:12;2.85;;;1.50;;
69057;SDS011;56128;37.534;-122.308;2024-03-22T12:54:38;2.72;;;1.40;;
69057;SDS011;56128;37.534;-122.308;2024-03-22T12:57:04;3.70;;;1.50;;
69057;SDS011;56128;37.534;-122.308;2024-03-22T12:59:30;5.65;;;1.73;;
69057;SDS011;56128;37.534;-122.308;2024-03-22T13:01:56;2.55;;;1.40;;
69057;SDS011;56128;37.534;-122.308;2024-03-22T13:04:23;6.10;;;1.50;;
69057;SDS011;56128;37.534;-122.308;2024-03-22T13:06:49;5.15;;;1.65;;
69057;SDS011;56128;37.534;-122.308;2024-03-22T13:09:15;4.25;;;1.58;;
69057;SDS011;56128;37.534;-122.308;2024-03-22T13:11:45;7.95;;;2.00;;
69057;SDS011;56128;37.534;-122.308;2024-03-22T13:14:11;6.22;;;2.33;;
69057;SDS011;56128;37.534;-122.308;2024-03-22T13:16:38;4.35;;;1.85;;
69057;SDS011;56128;37.534;-122.308;2024-03-22T13:19:04;8.00;;;1.77;;
69057;SDS011;56128;37.534;-122.308;2024-03-22T13:21:30;3.88;;;1.50;;
69057;SDS011;56128;37.534;-122.308;2024-03-22T13:23:56;4.70;;;1.92;;
69057;SDS011;56128;37.534;-122.308;2024-03-22T13:26:23;3.58;;;1.60;;
69057;SDS011;56128;37.534;-122.308;2024-03-22T13:28:49;3.33;;;1.88;;
69057;SDS011;56128;37.534;-122.308;2024-03-22T13:31:17;4.93;;;1.73;;
69057;SDS011;56128;37.534;-122.308;2024-03-22T13:33:43;5.10;;;1.48;;
69057;SDS011;56128;37.534;-122.308;2024-03-22T13:36:09;3.17;;;1.33;;
69057;SDS011;56128;37.534;-122.308;2024-03-22T13:38:35;4.82;;;1.80;;
69057;SDS011;56128;37.534;-122.308;2024-03-22T13:41:01;5.10;;;1.90;;
69057;SDS011;56128;37.534;-122.308;2024-03-22T13:43:29;6.05;;;2.13;;
69057;SDS011;56128;37.534;-122.308;2024-03-22T13:45:55;4.25;;;2.10;;
69057;SDS011;56128;37.534;-122.308;2024-03-22T13:48:22;8.63;;;2.55;;
69057;SDS011;56128;37.534;-122.308;2024-03-22T13:50:58;8.23;;;2.80;;
69057;SDS011;56128;37.534;-122.308;2024-03-22T13:53:24;13.05;;;4.28;;
69057;SDS011;56128;37.534;-122.308;2024-03-22T13:55:50;11.27;;;4.90;;
69057;SDS011;56128;37.534;-122.308;2024-03-22T13:58:20;14.88;;;6.18;;
69057;SDS011;56128;37.534;-122.308;2024-03-22T14:00:46;12.30;;;5.90;;
69057;SDS011;56128;37.534;-122.308;2024-03-22T14:03:12;11.60;;;4.95;;
69057;SDS011;56128;37.534;-122.308;2024-03-22T14:05:39;13.48;;;4.68;;
69057;SDS011;56128;37.534;-122.308;2024-03-22T14:08:05;12.15;;;4.65;;
69057;SDS011;56128;37.534;-122.308;2024-03-22T14:10:31;14.50;;;5.10;;
69057;SDS011;56128;37.534;-122.308;2024-03-22T14:12:58;9.68;;;4.32;;